createdAt,value
2022-09-01T00:00:14.274Z,2.47
2022-09-01T00:02:43.329Z,2.83
2022-09-01T00:05:10.557Z,2.75
2022-09-01T00:07:37.380Z,2.90
2022-09-01T00:10:09.335Z,3.20
2022-09-01T00:12:36.209Z,3.63
2022-09-01T00:15:07.272Z,3.78
2022-09-01T00:17:34.550Z,3.88
2022-09-01T00:20:01.428Z,4.18
2022-09-01T00:22:29.620Z,4.03
2022-09-01T00:24:56.868Z,4.70
2022-09-01T00:27:27.928Z,4.80
2022-09-01T00:29:58.559Z,4.55
2022-09-01T00:32:25.548Z,5.05
2022-09-01T00:34:52.461Z,4.68
2022-09-01T00:37:19.695Z,3.90
2022-09-01T00:39:46.608Z,4.20
2022-09-01T00:42:13.457Z,4.75
2022-09-01T00:44:40.283Z,4.15
2022-09-01T00:47:07.206Z,4.57
2022-09-01T00:49:40.213Z,3.92
2022-09-01T00:52:47.655Z,4.70
2022-09-01T00:55:35.475Z,4.05
2022-09-01T00:58:04.502Z,3.92
2022-09-01T01:00:41.906Z,4.05
2022-09-01T01:03:14.338Z,4.55
2022-09-01T01:05:48.973Z,3.38
2022-09-01T01:08:19.998Z,4.55
2022-09-01T01:10:47.600Z,3.80
2022-09-01T01:13:17.281Z,4.22
2022-09-01T01:15:44.981Z,4.20
2022-09-01T01:18:14.739Z,3.97
2022-09-01T01:21:02.246Z,3.72
2022-09-01T01:23:41.171Z,3.90
2022-09-01T01:26:10.641Z,3.67
2022-09-01T01:28:41.437Z,3.65
2022-09-01T01:31:14.546Z,3.03
2022-09-01T01:33:54.412Z,3.50
2022-09-01T01:36:33.923Z,3.20
2022-09-01T01:39:15.627Z,3.25
2022-09-01T01:41:48.895Z,3.47
2022-09-01T01:44:21.466Z,3.50
2022-09-01T01:46:52.452Z,3.15
2022-09-01T01:49:23.276Z,3.50
2022-09-01T01:51:58.082Z,3.45
2022-09-01T01:54:27.176Z,3.35
2022-09-01T01:56:55.959Z,3.58
2022-09-01T01:59:24.837Z,3.55
2022-09-01T02:01:51.936Z,3.42
2022-09-01T02:04:20.775Z,3.60
2022-09-01T02:06:50.023Z,3.35
2022-09-01T02:09:21.426Z,3.35
2022-09-01T02:11:49.393Z,4.05
2022-09-01T02:14:20.671Z,3.28
2022-09-01T02:16:48.490Z,3.80
2022-09-01T02:19:19.749Z,3.72
2022-09-01T02:21:56.338Z,4.00
2022-09-01T02:24:24.541Z,4.50
2022-09-01T02:26:51.406Z,3.95
2022-09-01T02:29:22.616Z,3.90
2022-09-01T02:31:52.686Z,4.07
2022-09-01T02:34:24.434Z,3.35
2022-09-01T02:36:54.507Z,4.43
2022-09-01T02:39:26.860Z,4.65
2022-09-01T02:41:54.802Z,5.07
2022-09-01T02:44:23.064Z,5.10
2022-09-01T02:46:50.932Z,5.13
2022-09-01T02:49:28.763Z,4.20
2022-09-01T02:52:02.054Z,4.28
2022-09-01T02:54:32.052Z,4.20
2022-09-01T02:56:59.176Z,4.65
2022-09-01T02:59:30.642Z,4.40
2022-09-01T03:01:57.744Z,4.65
2022-09-01T03:04:27.422Z,5.25
2022-09-01T03:06:55.141Z,4.97
2022-09-01T03:09:23.140Z,4.82
2022-09-01T03:11:53.284Z,5.13
2022-09-01T03:14:21.975Z,6.47
2022-09-01T03:16:48.984Z,5.80
2022-09-01T03:19:19.276Z,5.57
2022-09-01T03:21:47.136Z,5.35
2022-09-01T03:24:16.958Z,5.55
2022-09-01T03:26:45.190Z,6.35
2022-09-01T03:29:17.293Z,5.60
2022-09-01T03:31:45.330Z,4.88
2022-09-01T03:34:12.743Z,5.28
2022-09-01T03:36:40.113Z,6.60
2022-09-01T03:39:14.567Z,6.25
2022-09-01T03:41:43.891Z,5.65
2022-09-01T03:44:12.288Z,6.05
2022-09-01T03:46:40.827Z,6.03
2022-09-01T03:49:08.221Z,6.63
2022-09-01T03:51:35.493Z,5.88
2022-09-01T03:54:02.416Z,6.30
2022-09-01T03:56:29.935Z,6.80
2022-09-01T03:58:59.740Z,6.65
2022-09-01T04:01:29.169Z,5.97
2022-09-01T04:03:56.077Z,6.03
2022-09-01T04:06:24.541Z,6.82
2022-09-01T04:09:03.152Z,7.03
2022-09-01T04:11:31.182Z,6.47
2022-09-01T04:13:59.182Z,6.40
2022-09-01T04:16:48.858Z,6.10
2022-09-01T04:19:21.058Z,6.50
2022-09-01T04:21:51.864Z,6.30
2022-09-01T04:24:19.298Z,6.05
2022-09-01T04:26:49.826Z,6.72
2022-09-01T04:29:32.986Z,6.72
2022-09-01T04:32:05.750Z,6.13
2022-09-01T04:34:38.393Z,6.82
2022-09-01T04:37:15.194Z,6.30
2022-09-01T04:39:52.513Z,6.65
2022-09-01T04:42:24.220Z,5.75
2022-09-01T04:44:54.751Z,6.50
2022-09-01T04:47:35.613Z,6.70
2022-09-01T04:50:14.261Z,6.10
2022-09-01T04:52:45.191Z,5.65
2022-09-01T04:55:17.979Z,5.97
2022-09-01T04:57:49.883Z,5.80
2022-09-01T05:00:23.632Z,6.20
2022-09-01T05:03:01.386Z,6.07
2022-09-01T05:05:28.209Z,6.15
2022-09-01T05:07:55.913Z,6.78
2022-09-01T05:10:23.520Z,6.13
2022-09-01T05:12:51.025Z,5.93
2022-09-01T05:15:17.971Z,6.40
2022-09-01T05:17:44.991Z,7.72
2022-09-01T05:20:12.479Z,6.90
2022-09-01T05:22:41.212Z,6.13
2022-09-01T05:25:13.543Z,5.72
2022-09-01T05:27:49.961Z,5.32
2022-09-01T05:30:18.210Z,6.30
2022-09-01T05:32:49.318Z,6.57
2022-09-01T05:35:16.607Z,5.93
2022-09-01T05:37:43.669Z,7.57
2022-09-01T05:40:16.599Z,6.80
2022-09-01T05:42:47.740Z,7.07
2022-09-01T05:45:15.379Z,6.43
2022-09-01T05:47:42.306Z,7.20
2022-09-01T05:50:14.475Z,7.25
2022-09-01T05:52:48.022Z,6.80
2022-09-01T05:55:15.438Z,6.63
2022-09-01T05:57:43.049Z,7.35
2022-09-01T06:00:12.435Z,7.25
2022-09-01T06:02:40.837Z,6.85
2022-09-01T06:05:08.740Z,6.70
2022-09-01T06:07:38.236Z,6.50
2022-09-01T06:10:06.172Z,5.97
2022-09-01T06:12:33.942Z,6.28
2022-09-01T06:15:01.400Z,6.50
2022-09-01T06:17:30.217Z,6.40
2022-09-01T06:19:58.128Z,6.28
2022-09-01T06:22:28.433Z,6.40
2022-09-01T06:25:01.029Z,6.28
2022-09-01T06:27:29.568Z,6.85
2022-09-01T06:29:58.530Z,6.13
2022-09-01T06:32:27.369Z,6.43
2022-09-01T06:34:54.789Z,5.80
2022-09-01T06:37:23.236Z,5.70
2022-09-01T06:39:51.111Z,6.40
2022-09-01T06:42:19.600Z,6.00
2022-09-01T06:44:46.577Z,5.70
2022-09-01T06:47:15.732Z,5.28
2022-09-01T06:49:42.748Z,5.90
2022-09-01T06:52:09.661Z,5.40
2022-09-01T06:54:39.350Z,4.40
2022-09-01T06:59:54.429Z,5.07
2022-09-01T07:02:26.585Z,4.75
2022-09-01T07:04:54.725Z,4.32
2022-09-01T07:10:25.751Z,4.32
2022-09-01T07:13:12.162Z,4.20
2022-09-01T07:18:31.014Z,3.42
2022-09-01T07:21:35.682Z,3.33
2022-09-01T07:24:07.888Z,3.20
2022-09-01T07:26:46.845Z,3.42
2022-09-01T07:29:26.430Z,3.40
2022-09-01T07:34:46.473Z,3.00
2022-09-01T07:38:03.922Z,2.92
2022-09-01T07:45:31.208Z,3.00
2022-09-01T07:48:06.609Z,2.50
2022-09-01T07:51:35.212Z,2.60
2022-09-01T07:53:32.238Z,2.90
2022-09-01T07:56:07.585Z,2.13
2022-09-01T07:58:34.465Z,2.58
2022-09-01T08:01:04.053Z,2.50
2022-09-01T08:03:31.328Z,2.17
2022-09-01T08:06:06.616Z,2.10
2022-09-01T08:08:35.863Z,2.63
2022-09-01T08:11:04.604Z,2.00
2022-09-01T08:13:37.304Z,1.98
2022-09-01T08:16:18.006Z,1.98
2022-09-01T08:18:48.821Z,2.20
2022-09-01T08:21:18.063Z,1.67
2022-09-01T08:23:44.972Z,1.92
2022-09-01T08:26:16.283Z,1.80
2022-09-01T08:28:47.478Z,1.50
2022-09-01T08:31:23.256Z,1.92
2022-09-01T08:33:51.598Z,1.73
2022-09-01T08:36:23.650Z,1.75
2022-09-01T08:38:52.815Z,1.80
2022-09-01T08:41:47.173Z,1.60
2022-09-01T08:44:47.012Z,1.60
2022-09-01T08:47:28.112Z,1.55
2022-09-01T08:50:00.223Z,1.40
2022-09-01T08:52:32.116Z,1.35
2022-09-01T08:55:05.772Z,1.25
2022-09-01T08:57:40.011Z,1.73
2022-09-01T09:00:12.815Z,1.30
2022-09-01T09:03:02.713Z,1.20
2022-09-01T09:05:53.771Z,1.13
2022-09-01T09:09:00.903Z,1.20
2022-09-01T09:11:46.726Z,1.35
2022-09-01T09:14:51.383Z,1.20
2022-09-01T09:17:23.876Z,1.20
2022-09-01T09:19:51.046Z,1.35
2022-09-01T09:22:21.192Z,1.40
2022-09-01T09:24:56.289Z,1.20
2022-09-01T09:30:11.632Z,1.58
2022-09-01T09:33:54.317Z,1.50
2022-09-01T09:36:37.731Z,1.13
2022-09-01T09:39:10.449Z,1.10
2022-09-01T09:41:40.563Z,1.20
2022-09-01T09:44:29.754Z,1.20
2022-09-01T09:46:57.945Z,1.00
2022-09-01T09:49:34.524Z,1.17
2022-09-01T09:52:10.013Z,1.15
2022-09-01T09:54:42.155Z,1.10
2022-09-01T09:57:08.931Z,1.40
2022-09-01T10:00:10.347Z,1.70
2022-09-01T10:02:45.253Z,1.45
2022-09-01T10:05:44.373Z,1.35
2022-09-01T10:08:45.812Z,1.23
2022-09-01T10:11:33.551Z,1.15
2022-09-01T10:14:52.478Z,1.30
2022-09-01T10:17:19.017Z,1.10
2022-09-01T10:20:11.420Z,1.20
2022-09-01T10:22:39.979Z,1.35
2022-09-01T10:25:10.378Z,1.05
2022-09-01T10:27:42.590Z,0.93
2022-09-01T10:30:18.996Z,1.10
2022-09-01T10:32:56.023Z,1.10
2022-09-01T10:35:33.060Z,1.25
2022-09-01T10:38:08.250Z,1.30
2022-09-01T10:41:09.101Z,1.10
2022-09-01T10:43:43.317Z,1.25
2022-09-01T10:46:40.760Z,1.20
2022-09-01T10:49:47.342Z,1.38
2022-09-01T10:52:43.988Z,0.90
2022-09-01T10:55:24.462Z,2.28
2022-09-01T10:57:55.830Z,1.08
2022-09-01T11:00:36.890Z,1.58
2022-09-01T11:06:14.889Z,1.33
2022-09-01T11:09:01.500Z,1.13
2022-09-01T11:12:38.287Z,1.10
2022-09-01T11:15:42.918Z,1.30
2022-09-01T11:18:25.083Z,0.95
2022-09-01T11:20:56.305Z,1.20
2022-09-01T11:23:30.643Z,1.20
2022-09-01T11:26:19.248Z,1.20
2022-09-01T11:28:47.168Z,1.15
2022-09-01T11:31:51.199Z,1.20
2022-09-01T11:34:23.803Z,1.23
2022-09-01T11:37:16.081Z,1.10
2022-09-01T11:39:52.072Z,1.20
2022-09-01T11:42:40.243Z,1.55
2022-09-01T11:45:31.484Z,1.30
2022-09-01T11:48:19.203Z,1.20
2022-09-01T11:51:02.832Z,1.45
2022-09-01T11:53:30.547Z,1.15
2022-09-01T11:56:20.507Z,1.00
2022-09-01T11:58:47.651Z,1.13
2022-09-01T12:01:32.127Z,1.13
2022-09-01T12:04:18.723Z,1.17
2022-09-01T12:07:02.501Z,0.93
2022-09-01T12:09:44.199Z,1.02
2022-09-01T12:12:34.040Z,1.67
2022-09-01T12:15:11.400Z,1.02
2022-09-01T12:17:40.903Z,1.33
2022-09-01T12:20:29.615Z,1.25
2022-09-01T12:22:59.423Z,1.17
2022-09-01T12:25:34.679Z,1.10
2022-09-01T12:28:03.947Z,1.00
2022-09-01T12:30:35.531Z,1.10
2022-09-01T12:33:23.948Z,1.10
2022-09-01T12:35:53.981Z,1.42
2022-09-01T12:38:25.039Z,1.10
2022-09-01T12:40:57.748Z,1.10
2022-09-01T12:43:39.735Z,1.30
2022-09-01T12:46:10.470Z,1.10
2022-09-01T12:48:41.319Z,1.08
2022-09-01T12:51:30.922Z,1.20
2022-09-01T12:54:04.859Z,1.20
2022-09-01T12:56:39.139Z,1.08
2022-09-01T12:59:17.833Z,1.00
2022-09-01T13:01:47.251Z,1.25
2022-09-01T13:04:31.145Z,1.10
2022-09-01T13:07:05.143Z,1.25
2022-09-01T13:09:32.556Z,1.58
2022-09-01T13:12:18.469Z,1.20
2022-09-01T13:14:45.907Z,0.90
2022-09-01T13:17:14.221Z,1.10
2022-09-01T13:19:41.873Z,1.33
2022-09-01T13:22:08.736Z,1.10
2022-09-01T13:24:35.587Z,0.90
2022-09-01T13:29:50.816Z,1.20
2022-09-01T13:32:21.262Z,1.33
2022-09-01T13:34:51.842Z,1.27
2022-09-01T13:37:20.599Z,1.23
2022-09-01T13:39:48.236Z,1.00
2022-09-01T13:42:16.472Z,1.33
2022-09-01T13:44:44.441Z,1.02
2022-09-01T13:50:10.521Z,1.40
2022-09-01T13:52:43.165Z,1.35
2022-09-01T13:55:26.772Z,1.42
2022-09-01T13:57:55.809Z,1.05
2022-09-01T14:00:32.230Z,1.10
2022-09-01T14:03:05.722Z,1.02
2022-09-01T14:05:37.131Z,1.30
2022-09-01T14:08:07.246Z,1.30
2022-09-01T14:10:41.829Z,1.10
2022-09-01T14:13:10.999Z,1.00
2022-09-01T14:15:38.196Z,1.20
2022-09-01T14:18:05.703Z,1.35
2022-09-01T14:20:38.555Z,1.20
2022-09-01T14:23:08.531Z,1.38
2022-09-01T14:25:36.058Z,1.30
2022-09-01T14:28:04.008Z,1.20
2022-09-01T14:30:34.578Z,1.40
2022-09-01T14:33:01.992Z,1.30
2022-09-01T14:35:33.841Z,1.15
2022-09-01T14:38:02.971Z,1.13
2022-09-01T14:40:29.873Z,1.30
2022-09-01T14:42:56.789Z,1.40
2022-09-01T14:45:27.739Z,1.50
2022-09-01T14:47:58.807Z,1.45
2022-09-01T14:50:27.329Z,1.40
2022-09-01T14:52:56.964Z,1.20
2022-09-01T14:55:26.720Z,1.45
2022-09-01T14:57:54.642Z,1.30
2022-09-01T15:00:25.173Z,1.20
2022-09-01T15:02:53.650Z,1.25
2022-09-01T15:05:21.547Z,1.25
2022-09-01T15:07:49.274Z,0.80
2022-09-01T15:10:24.449Z,1.10
2022-09-01T15:12:53.790Z,1.10
2022-09-01T15:15:20.822Z,1.00
2022-09-01T15:17:47.591Z,1.27
2022-09-01T15:20:47.751Z,1.27
2022-09-01T15:23:19.704Z,0.95
2022-09-01T15:25:48.351Z,1.17
2022-09-01T15:28:15.657Z,1.20
2022-09-01T15:30:44.810Z,1.20
2022-09-01T15:33:15.679Z,1.35
2022-09-01T15:35:44.952Z,1.10
2022-09-01T15:38:17.928Z,0.98
2022-09-01T15:40:55.399Z,1.00
2022-09-01T15:43:25.955Z,1.65
2022-09-01T15:45:52.940Z,1.20
2022-09-01T15:48:19.749Z,1.17
2022-09-01T15:50:46.799Z,1.60
2022-09-01T15:53:13.717Z,1.40
2022-09-01T15:55:44.983Z,1.40
2022-09-01T15:58:15.301Z,1.10
2022-09-01T16:00:45.257Z,1.17
2022-09-01T16:03:12.746Z,1.13
2022-09-01T16:05:41.271Z,1.10
2022-09-01T16:08:11.658Z,1.30
2022-09-01T16:10:42.320Z,1.30
2022-09-01T16:13:11.136Z,1.42
2022-09-01T16:15:50.022Z,1.30
2022-09-01T16:18:41.957Z,1.42
2022-09-01T16:21:22.544Z,1.17
2022-09-01T16:23:52.454Z,1.13
2022-09-01T16:26:23.340Z,1.35
2022-09-01T16:28:57.920Z,1.08
2022-09-01T16:31:29.343Z,1.05
2022-09-01T16:34:02.280Z,1.30
2022-09-01T16:37:25.236Z,1.27
2022-09-01T16:40:25.037Z,1.08
2022-09-01T16:43:23.877Z,1.20
2022-09-01T16:46:13.758Z,1.02
2022-09-01T16:48:53.299Z,0.95
2022-09-01T16:51:42.093Z,1.20
2022-09-01T16:54:27.222Z,1.15
2022-09-01T16:57:11.452Z,1.27
2022-09-01T16:59:59.211Z,1.00
2022-09-01T17:02:53.707Z,1.20
2022-09-01T17:06:13.814Z,1.23
2022-09-01T17:08:58.208Z,1.40
2022-09-01T17:11:49.216Z,1.10
2022-09-01T17:14:28.001Z,1.20
2022-09-01T17:17:08.362Z,1.10
2022-09-01T17:19:38.603Z,1.15
2022-09-01T17:22:11.515Z,1.02
2022-09-01T17:24:42.400Z,1.30
2022-09-01T17:27:20.612Z,1.20
2022-09-01T17:29:53.793Z,1.00
2022-09-01T17:32:56.284Z,1.00
2022-09-01T17:36:06.614Z,1.20
2022-09-01T17:39:04.338Z,1.10
2022-09-01T17:41:40.398Z,1.20
2022-09-01T17:44:45.582Z,1.33
2022-09-01T17:48:03.640Z,1.45
2022-09-01T17:50:39.460Z,1.23
2022-09-01T17:53:36.480Z,1.17
2022-09-01T17:56:38.367Z,1.20
2022-09-01T17:59:43.199Z,1.40
2022-09-01T18:02:18.865Z,1.02
2022-09-01T18:05:15.808Z,1.10
2022-09-01T18:08:19.331Z,1.40
2022-09-01T18:10:57.248Z,1.42
2022-09-01T18:13:53.526Z,1.30
2022-09-01T18:16:49.882Z,1.27
2022-09-01T18:19:23.043Z,1.50
2022-09-01T18:21:58.576Z,1.10
2022-09-01T18:24:42.471Z,1.20
2022-09-01T18:27:09.379Z,1.20
2022-09-01T18:29:36.338Z,1.63
2022-09-01T18:32:21.373Z,1.17
2022-09-01T18:35:24.479Z,1.45
2022-09-01T18:38:09.881Z,1.40
2022-09-01T18:41:38.232Z,1.20
2022-09-01T18:44:17.671Z,1.20
2022-09-01T18:46:57.985Z,1.40
2022-09-01T18:49:36.928Z,1.60
2022-09-01T18:52:14.474Z,1.40
2022-09-01T18:54:58.319Z,1.58
2022-09-01T18:57:36.234Z,1.35
2022-09-01T19:00:20.323Z,1.50
2022-09-01T19:03:04.815Z,1.40
2022-09-01T19:05:38.389Z,1.60
2022-09-01T19:08:18.072Z,1.20
2022-09-01T19:11:21.977Z,1.35
2022-09-01T19:14:07.336Z,1.20
2022-09-01T19:17:04.555Z,1.30
2022-09-01T19:19:46.468Z,1.20
2022-09-01T19:22:20.475Z,1.05
2022-09-01T19:24:54.018Z,1.25
2022-09-01T19:27:28.654Z,1.10
2022-09-01T19:30:04.208Z,1.13
2022-09-01T19:32:35.144Z,0.95
2022-09-01T19:35:14.078Z,1.30
2022-09-01T19:37:44.109Z,1.00
2022-09-01T19:40:11.756Z,1.13
2022-09-01T19:42:47.106Z,1.02
2022-09-01T19:45:35.927Z,1.30
2022-09-01T19:48:21.910Z,1.15
2022-09-01T19:51:17.876Z,1.52
2022-09-01T19:56:35.707Z,1.15
2022-09-01T19:59:27.555Z,1.08
2022-09-01T20:02:10.378Z,1.15
2022-09-01T20:04:56.950Z,1.10
2022-09-01T20:07:38.402Z,1.20
2022-09-01T20:10:55.350Z,1.30
2022-09-01T20:14:17.668Z,1.10
2022-09-01T20:16:51.387Z,1.10
2022-09-01T20:19:45.093Z,1.10
2022-09-01T20:22:23.292Z,1.10
2022-09-01T20:24:50.264Z,1.30
2022-09-01T20:27:43.858Z,0.90
2022-09-01T20:33:02.947Z,1.27
2022-09-01T20:35:39.822Z,1.10
2022-09-01T20:39:00.599Z,1.20
2022-09-01T20:42:05.606Z,1.20
2022-09-01T20:44:44.731Z,1.23
2022-09-01T20:47:12.648Z,1.30
2022-09-01T20:49:40.519Z,1.42
2022-09-01T20:53:00.000Z,1.25
2022-09-01T20:55:40.693Z,1.20
2022-09-01T20:58:32.838Z,1.00
2022-09-01T21:01:31.841Z,1.25
2022-09-01T21:04:13.361Z,1.48
2022-09-01T21:07:08.469Z,1.20
2022-09-01T21:10:02.210Z,1.10
2022-09-01T21:12:37.610Z,1.45
2022-09-01T21:15:52.760Z,1.02
2022-09-01T21:18:30.406Z,1.52
2022-09-01T21:21:10.205Z,1.30
2022-09-01T21:23:37.172Z,1.20
2022-09-01T21:26:04.252Z,1.60
2022-09-01T21:28:31.541Z,1.15
2022-09-01T21:31:00.214Z,1.27
2022-09-01T21:33:31.923Z,1.58
2022-09-01T21:36:00.398Z,1.42
2022-09-01T21:38:29.572Z,1.52
2022-09-01T21:40:59.700Z,1.42
2022-09-01T21:43:33.034Z,1.67
2022-09-01T21:46:01.285Z,1.30
2022-09-01T21:48:29.064Z,1.75
2022-09-01T21:50:55.914Z,1.38
2022-09-01T21:53:22.782Z,1.27
2022-09-01T21:55:49.907Z,1.50
2022-09-01T21:58:16.820Z,1.50
2022-09-01T22:00:44.661Z,1.70
2022-09-01T22:03:12.957Z,1.80
2022-09-01T22:05:42.503Z,1.40
2022-09-01T22:08:12.405Z,1.50
2022-09-01T22:10:49.863Z,1.60
2022-09-01T22:13:17.552Z,1.65
2022-09-01T22:15:49.358Z,1.85
2022-09-01T22:18:18.628Z,1.70
2022-09-01T22:20:46.692Z,1.90
2022-09-01T22:23:15.186Z,1.48
2022-09-01T22:25:45.922Z,1.80
2022-09-01T22:28:13.951Z,2.28
2022-09-01T22:30:47.018Z,1.70
2022-09-01T22:33:14.631Z,1.90
2022-09-01T22:35:49.009Z,1.80
2022-09-01T22:38:17.390Z,1.70
2022-09-01T22:40:57.402Z,2.10
2022-09-01T22:43:25.667Z,2.20
2022-09-01T22:45:54.383Z,2.15
2022-09-01T22:48:25.712Z,2.53
2022-09-01T22:50:53.243Z,2.10
2022-09-01T22:53:22.976Z,2.30
2022-09-01T22:55:51.653Z,2.40
2022-09-01T22:58:20.127Z,2.22
2022-09-01T23:00:54.151Z,2.35
2022-09-01T23:03:22.587Z,2.10
2022-09-01T23:05:50.491Z,2.20
2022-09-01T23:08:17.574Z,2.13
2022-09-01T23:10:44.483Z,1.90
2022-09-01T23:13:11.322Z,2.38
2022-09-01T23:15:38.235Z,2.03
2022-09-01T23:18:05.756Z,2.38
2022-09-01T23:20:32.643Z,2.00
2022-09-01T23:22:59.476Z,2.17
2022-09-01T23:25:26.527Z,1.70
2022-09-01T23:27:53.444Z,2.22
2022-09-01T23:30:20.471Z,2.35
2022-09-01T23:32:47.263Z,2.30
2022-09-01T23:35:14.198Z,2.67
2022-09-01T23:37:43.481Z,2.53
2022-09-01T23:40:10.630Z,2.90
2022-09-01T23:42:37.627Z,2.10
2022-09-01T23:45:06.126Z,2.15
2022-09-01T23:47:32.979Z,2.33
2022-09-01T23:50:00.014Z,2.38
2022-09-01T23:52:26.893Z,2.15
2022-09-01T23:54:54.855Z,2.53
2022-09-01T23:57:21.789Z,2.28
2022-09-01T23:59:48.715Z,2.75
